createdAt,value
2024-02-21T00:00:46.583Z,147.41
2024-02-21T00:01:46.534Z,147.73
2024-02-21T00:02:46.495Z,148.01
2024-02-21T00:03:46.520Z,147.37
2024-02-21T00:04:46.558Z,146.49
2024-02-21T00:05:46.506Z,146.06
2024-02-21T00:06:46.464Z,146.13
2024-02-21T00:07:46.515Z,146.01
2024-02-21T00:08:46.511Z,145.67
2024-02-21T00:09:46.404Z,145.29
2024-02-21T00:10:46.504Z,146.93
2024-02-21T00:11:46.417Z,146.94
2024-02-21T00:12:46.376Z,145.94
2024-02-21T00:13:46.431Z,146.68
2024-02-21T00:14:46.349Z,146.47
2024-02-21T00:15:46.321Z,147.33
2024-02-21T00:16:46.440Z,146.96
2024-02-21T00:17:46.368Z,146.11
2024-02-21T00:18:46.396Z,145.21
2024-02-21T00:19:46.401Z,145.31
2024-02-21T00:20:46.291Z,145.31
2024-02-21T00:21:46.264Z,144.69
2024-02-21T00:22:46.296Z,145.05
2024-02-21T00:23:46.245Z,145.30
2024-02-21T00:24:46.228Z,144.90
2024-02-21T00:25:46.250Z,144.52
2024-02-21T00:26:46.195Z,145.45
2024-02-21T00:27:46.190Z,144.73
2024-02-21T00:28:46.207Z,143.79
2024-02-21T00:29:46.159Z,144.23
2024-02-21T00:30:46.157Z,143.61
2024-02-21T00:31:46.227Z,144.24
2024-02-21T00:32:46.219Z,143.33
2024-02-21T00:33:46.180Z,143.60
2024-02-21T00:34:46.149Z,143.85
2024-02-21T00:35:46.102Z,142.69
2024-02-21T00:36:46.109Z,143.29
2024-02-21T00:37:46.132Z,142.71
2024-02-21T00:38:46.069Z,142.31
2024-02-21T00:39:46.082Z,143.55
2024-02-21T00:40:46.125Z,142.73
2024-02-21T00:41:46.047Z,143.47
2024-02-21T00:42:46.049Z,142.00
2024-02-21T00:43:46.106Z,141.52
2024-02-21T00:44:45.997Z,141.12
2024-02-21T00:45:45.992Z,141.61
2024-02-21T00:46:46.014Z,141.25
2024-02-21T00:47:46.023Z,142.12
2024-02-21T00:48:46.019Z,141.09
2024-02-21T00:49:46.013Z,142.30
2024-02-21T00:50:45.929Z,140.92
2024-02-21T00:51:45.905Z,141.95
2024-02-21T00:52:46.056Z,141.29
2024-02-21T00:53:45.903Z,140.95
2024-02-21T00:54:50.874Z,140.75
2024-02-21T00:55:46.919Z,140.81
2024-02-21T00:56:45.834Z,140.88
2024-02-21T00:57:45.813Z,141.20
2024-02-21T00:58:45.853Z,140.78
2024-02-21T00:59:45.796Z,141.82
2024-02-21T01:00:45.888Z,141.99
2024-02-21T01:01:45.886Z,140.95
2024-02-21T01:02:45.752Z,141.30
2024-02-21T01:03:45.804Z,139.82
2024-02-21T01:04:45.745Z,141.40
2024-02-21T01:05:45.753Z,141.41
2024-02-21T01:06:45.705Z,139.50
2024-02-21T01:07:45.726Z,140.22
2024-02-21T01:08:45.682Z,137.97
2024-02-21T01:09:45.679Z,139.63
2024-02-21T01:10:45.744Z,139.56
2024-02-21T01:11:45.709Z,141.17
2024-02-21T01:12:45.694Z,138.89
2024-02-21T01:13:45.697Z,138.94
2024-02-21T01:14:45.632Z,139.03
2024-02-21T01:15:45.632Z,138.94
2024-02-21T01:16:45.643Z,139.08
2024-02-21T01:17:45.660Z,139.22
2024-02-21T01:19:45.657Z,139.22
2024-02-21T01:20:45.623Z,140.75
2024-02-21T01:21:45.570Z,139.13
2024-02-21T01:22:45.572Z,139.32
2024-02-21T01:23:45.561Z,139.41
2024-02-21T01:24:45.529Z,139.38
2024-02-21T01:25:45.567Z,139.57
2024-02-21T01:26:45.499Z,139.58
2024-02-21T01:27:45.500Z,138.18
2024-02-21T01:28:45.553Z,138.30
2024-02-21T01:29:45.465Z,138.48
2024-02-21T01:30:45.439Z,138.27
2024-02-21T01:31:45.471Z,137.36
2024-02-21T01:32:45.473Z,137.44
2024-02-21T01:33:45.402Z,137.43
2024-02-21T01:34:45.488Z,137.00
2024-02-21T01:35:45.538Z,137.07
2024-02-21T01:36:45.346Z,137.13
2024-02-21T01:37:45.402Z,137.32
2024-02-21T01:38:45.325Z,137.26
2024-02-21T01:39:45.317Z,138.71
2024-02-21T01:40:45.339Z,137.21
2024-02-21T01:41:45.272Z,137.39
2024-02-21T01:42:45.268Z,136.84
2024-02-21T01:43:45.324Z,137.59
2024-02-21T01:44:45.257Z,137.14
2024-02-21T01:45:45.233Z,137.43
2024-02-21T01:46:45.236Z,137.77
2024-02-21T01:47:45.275Z,137.43
2024-02-21T01:48:45.382Z,137.47
2024-02-21T01:49:45.232Z,137.60
2024-02-21T01:50:45.197Z,137.68
2024-02-21T01:51:45.193Z,137.43
2024-02-21T01:52:45.266Z,137.58
2024-02-21T01:53:45.184Z,136.52
2024-02-21T01:54:45.190Z,138.02
2024-02-21T01:55:45.185Z,136.18
2024-02-21T01:56:45.146Z,136.51
2024-02-21T01:57:45.139Z,136.95
2024-02-21T01:58:45.156Z,135.49
2024-02-21T01:59:45.124Z,135.71
2024-02-21T02:00:45.154Z,135.16
2024-02-21T02:01:45.132Z,134.55
2024-02-21T02:02:45.101Z,134.95
2024-02-21T02:03:45.299Z,135.82
2024-02-21T02:04:45.137Z,135.30
2024-02-21T02:05:45.065Z,135.02
2024-02-21T02:06:45.082Z,134.66
2024-02-21T02:07:45.077Z,134.44
2024-02-21T02:08:45.043Z,134.73
2024-02-21T02:09:45.021Z,133.71
2024-02-21T02:10:45.213Z,135.06
2024-02-21T02:11:45.014Z,133.48
2024-02-21T02:12:45.003Z,133.75
2024-02-21T02:13:45.035Z,134.25
2024-02-21T02:14:44.989Z,133.91
2024-02-21T02:15:44.981Z,133.77
2024-02-21T02:16:45.031Z,132.61
2024-02-21T02:17:45.029Z,132.67
2024-02-21T02:18:45.029Z,132.72
2024-02-21T02:19:45.096Z,132.95
2024-02-21T02:20:44.988Z,133.05
2024-02-21T02:21:44.921Z,132.81
2024-02-21T02:22:44.930Z,133.78
2024-02-21T02:23:44.907Z,134.31
2024-02-21T02:24:44.909Z,133.45
2024-02-21T02:25:44.921Z,133.33
2024-02-21T02:26:44.873Z,131.91
2024-02-21T02:27:44.851Z,132.87
2024-02-21T02:28:44.913Z,132.57
2024-02-21T02:29:44.848Z,132.91
2024-02-21T02:30:44.805Z,132.72
2024-02-21T02:31:44.809Z,132.47
2024-02-21T02:32:44.845Z,132.33
2024-02-21T02:33:44.920Z,132.69
2024-02-21T02:34:44.801Z,131.37
2024-02-21T02:35:44.785Z,133.30
2024-02-21T02:36:44.763Z,131.55
2024-02-21T02:37:44.794Z,132.16
2024-02-21T02:38:44.759Z,131.67
2024-02-21T02:39:44.748Z,131.77
2024-02-21T02:40:44.809Z,132.98
2024-02-21T02:41:44.704Z,131.39
2024-02-21T02:42:44.723Z,130.33
2024-02-21T02:43:44.752Z,129.61
2024-02-21T02:44:44.692Z,131.09
2024-02-21T02:45:44.689Z,132.90
2024-02-21T02:46:44.744Z,130.11
2024-02-21T02:47:44.749Z,130.15
2024-02-21T02:48:44.714Z,130.21
2024-02-21T02:49:44.724Z,130.75
2024-02-21T02:50:44.640Z,130.22
2024-02-21T02:51:44.675Z,129.77
2024-02-21T02:52:44.682Z,130.91
2024-02-21T02:53:44.626Z,129.84
2024-02-21T02:54:44.612Z,129.70
2024-02-21T02:55:44.652Z,130.43
2024-02-21T02:56:44.590Z,130.44
2024-02-21T02:57:44.585Z,130.55
2024-02-21T02:58:44.582Z,130.04
2024-02-21T02:59:44.549Z,130.79
2024-02-21T03:00:44.534Z,129.55
2024-02-21T03:01:44.594Z,128.79
2024-02-21T03:02:44.542Z,130.39
2024-02-21T03:03:44.593Z,129.29
2024-02-21T03:04:44.601Z,128.88
2024-02-21T03:05:44.518Z,130.07
2024-02-21T03:06:44.468Z,127.76
2024-02-21T03:07:44.568Z,129.53
2024-02-21T03:08:44.448Z,129.02
2024-02-21T03:09:44.437Z,129.61
2024-02-21T03:10:44.521Z,128.12
2024-02-21T03:11:44.473Z,129.59
2024-02-21T03:12:44.406Z,128.55
2024-02-21T03:13:44.443Z,128.58
2024-02-21T03:14:44.415Z,128.75
2024-02-21T03:15:44.391Z,128.56
2024-02-21T03:16:44.411Z,127.60
2024-02-21T03:17:44.453Z,128.98
2024-02-21T03:18:44.450Z,127.50
2024-02-21T03:19:44.360Z,128.40
2024-02-21T03:20:44.336Z,131.89
2024-02-21T03:21:44.341Z,133.66
2024-02-21T03:22:44.326Z,133.12
2024-02-21T03:23:44.318Z,131.70
2024-02-21T03:24:44.292Z,132.63
2024-02-21T03:25:44.332Z,130.23
2024-02-21T03:26:44.273Z,127.59
2024-02-21T03:27:44.263Z,122.78
2024-02-21T03:28:44.311Z,121.80
2024-02-21T03:29:44.273Z,118.26
2024-02-21T03:30:44.252Z,116.99
2024-02-21T03:31:44.253Z,112.06
2024-02-21T03:32:44.261Z,109.23
2024-02-21T03:33:44.254Z,105.24
2024-02-21T03:34:44.233Z,101.82
2024-02-21T03:35:44.229Z,97.90
2024-02-21T03:36:44.233Z,97.21
2024-02-21T03:37:44.241Z,89.38
2024-02-21T03:38:44.236Z,87.95
2024-02-21T03:39:44.190Z,86.65
2024-02-21T03:40:44.203Z,84.98
2024-02-21T03:41:44.173Z,82.99
2024-02-21T03:42:44.166Z,82.17
2024-02-21T03:43:44.209Z,82.34
2024-02-21T03:44:44.153Z,79.27
2024-02-21T03:45:44.152Z,74.69
2024-02-21T03:46:44.197Z,76.48
2024-02-21T03:47:44.172Z,75.41
2024-02-21T03:48:44.131Z,74.16
2024-02-21T03:49:44.245Z,73.53
2024-02-21T03:50:44.131Z,73.27
2024-02-21T03:51:44.123Z,72.50
2024-02-21T03:52:44.186Z,70.04
2024-02-21T03:53:44.119Z,69.33
2024-02-21T03:54:44.104Z,67.14
2024-02-21T03:55:44.128Z,65.80
2024-02-21T03:56:44.103Z,63.64
2024-02-21T03:57:44.110Z,64.49
2024-02-21T03:58:44.150Z,61.29
2024-02-21T03:59:44.975Z,62.87
2024-02-21T04:00:44.139Z,61.40
2024-02-21T04:01:44.192Z,62.98
2024-02-21T04:02:44.173Z,63.34
2024-02-21T04:03:44.221Z,63.35
2024-02-21T04:04:44.263Z,61.12
2024-02-21T04:05:44.207Z,59.16
2024-02-21T04:06:44.177Z,56.83
2024-02-21T04:07:44.232Z,59.04
2024-02-21T04:08:44.167Z,56.97
2024-02-21T04:09:44.158Z,59.05
2024-02-21T04:10:44.193Z,57.94
2024-02-21T04:11:44.283Z,55.78
2024-02-21T04:12:44.142Z,54.89
2024-02-21T04:13:44.181Z,52.77
2024-02-21T04:14:47.411Z,53.42
2024-02-21T04:15:44.166Z,54.11
2024-02-21T04:16:44.178Z,52.36
2024-02-21T04:17:44.190Z,52.43
2024-02-21T04:18:44.279Z,50.37
2024-02-21T04:19:44.272Z,54.64
2024-02-21T04:20:44.216Z,51.46
2024-02-21T04:21:44.161Z,49.10
2024-02-21T04:22:44.180Z,52.94
2024-02-21T04:23:44.172Z,52.76
2024-02-21T04:24:44.159Z,50.00
2024-02-21T04:25:44.207Z,51.88
2024-02-21T04:26:44.156Z,50.36
2024-02-21T04:27:44.166Z,52.58
2024-02-21T04:28:44.213Z,52.39
2024-02-21T04:29:44.209Z,54.75
2024-02-21T04:30:44.159Z,54.99
2024-02-21T04:31:44.241Z,54.05
2024-02-21T04:32:44.246Z,54.57
2024-02-21T04:33:44.280Z,54.58
2024-02-21T04:34:44.312Z,55.13
2024-02-21T04:35:44.239Z,55.42
2024-02-21T04:36:51.499Z,50.00
2024-02-21T04:37:51.524Z,50.00
2024-02-21T04:38:51.523Z,50.00
2024-02-21T04:39:51.488Z,50.00
2024-02-21T04:40:51.579Z,50.00
2024-02-21T04:41:51.496Z,51.46
2024-02-21T04:42:51.492Z,51.59
2024-02-21T04:43:51.536Z,52.78
2024-02-21T04:44:51.492Z,50.00
2024-02-21T04:45:51.470Z,52.93
2024-02-21T04:46:51.503Z,50.91
2024-02-21T04:47:51.525Z,53.40
2024-02-21T04:48:51.529Z,54.63
2024-02-21T04:49:51.524Z,54.96
2024-02-21T04:50:51.466Z,59.68
2024-02-21T04:51:51.478Z,54.89
2024-02-21T04:52:51.517Z,54.68
2024-02-21T04:53:51.497Z,56.22
2024-02-21T04:54:51.516Z,62.76
2024-02-21T04:55:51.541Z,62.89
2024-02-21T04:56:53.716Z,60.33
2024-02-21T04:57:51.632Z,57.61
2024-02-21T04:58:51.763Z,59.56
2024-02-21T04:59:51.765Z,67.36
2024-02-21T05:00:51.874Z,65.20
2024-02-21T05:01:51.935Z,66.75
2024-02-21T05:02:51.936Z,68.21
2024-02-21T05:03:52.006Z,66.90
2024-02-21T05:04:52.069Z,64.82
2024-02-21T05:05:52.131Z,64.90
2024-02-21T05:06:52.029Z,59.82
2024-02-21T05:07:52.024Z,60.55
2024-02-21T05:08:51.991Z,60.59
2024-02-21T05:09:52.000Z,61.81
2024-02-21T05:10:52.090Z,62.65
2024-02-21T05:11:52.041Z,60.97
2024-02-21T05:12:52.011Z,60.87
2024-02-21T05:13:52.063Z,61.70
2024-02-21T05:14:52.002Z,62.32
2024-02-21T05:15:52.062Z,65.61
2024-02-21T05:16:52.178Z,66.09
2024-02-21T05:17:52.493Z,64.15
2024-02-21T05:18:52.312Z,65.13
2024-02-21T05:19:52.427Z,67.89
2024-02-21T05:20:52.403Z,64.26
2024-02-21T05:21:52.457Z,69.13
2024-02-21T05:22:52.556Z,68.88
2024-02-21T05:23:52.556Z,71.91
2024-02-21T05:24:52.627Z,74.55
2024-02-21T05:25:52.769Z,72.46
2024-02-21T05:26:52.768Z,71.85
2024-02-21T05:27:52.840Z,71.84
2024-02-21T05:28:52.873Z,72.03
2024-02-21T05:29:52.833Z,72.22
2024-02-21T05:30:52.829Z,73.29
2024-02-21T05:31:52.906Z,74.88
2024-02-21T05:32:52.945Z,78.11
2024-02-21T05:33:52.885Z,82.72
2024-02-21T05:34:52.896Z,84.06
2024-02-21T05:35:52.866Z,87.10
2024-02-21T05:36:52.826Z,88.83
2024-02-21T05:37:52.857Z,87.82
2024-02-21T05:38:52.884Z,88.58
2024-02-21T05:39:52.934Z,93.35
2024-02-21T05:40:53.026Z,94.79
2024-02-21T05:41:53.046Z,95.13
2024-02-21T05:42:53.091Z,100.04
2024-02-21T05:43:53.208Z,101.52
2024-02-21T05:44:53.233Z,102.53
2024-02-21T05:45:53.280Z,104.49
2024-02-21T05:46:53.429Z,104.67
2024-02-21T05:47:53.378Z,104.70
2024-02-21T05:48:53.426Z,104.84
2024-02-21T05:49:53.370Z,104.28
2024-02-21T05:50:53.345Z,103.33
2024-02-21T05:51:53.348Z,104.79
2024-02-21T05:52:53.396Z,104.75
2024-02-21T05:53:53.350Z,102.54
2024-02-21T05:54:53.332Z,101.32
2024-02-21T05:55:53.365Z,100.61
2024-02-21T05:56:53.370Z,99.95
2024-02-21T05:57:53.352Z,101.27
2024-02-21T05:58:53.466Z,103.21
2024-02-21T05:59:53.347Z,104.26
2024-02-21T06:00:53.390Z,105.17
2024-02-21T06:01:53.467Z,105.37
2024-02-21T06:02:53.472Z,105.97
2024-02-21T06:03:53.577Z,106.42
2024-02-21T06:04:53.598Z,106.27
2024-02-21T06:05:53.628Z,105.84
2024-02-21T06:06:53.743Z,106.64
2024-02-21T06:07:53.836Z,104.00
2024-02-21T06:08:53.814Z,103.94
2024-02-21T06:09:53.861Z,105.74
2024-02-21T06:10:53.998Z,106.87
2024-02-21T06:11:54.044Z,103.40
2024-02-21T06:12:54.036Z,108.96
2024-02-21T06:13:54.119Z,107.70
2024-02-21T06:14:54.168Z,106.58
2024-02-21T06:15:54.230Z,109.35
2024-02-21T06:16:54.332Z,110.03
2024-02-21T06:17:54.363Z,107.29
2024-02-21T06:18:54.442Z,107.60
2024-02-21T06:19:54.474Z,112.56
2024-02-21T06:20:54.533Z,117.09
2024-02-21T06:21:54.589Z,127.80
2024-02-21T06:22:54.767Z,128.99
2024-02-21T06:23:54.794Z,131.28
2024-02-21T06:24:54.749Z,131.56
2024-02-21T06:25:54.894Z,129.31
2024-02-21T06:26:54.845Z,127.52
2024-02-21T06:27:54.878Z,128.17
2024-02-21T06:28:55.006Z,126.10
2024-02-21T06:29:54.896Z,126.12
2024-02-21T06:30:54.932Z,123.15
2024-02-21T06:31:54.994Z,122.26
2024-02-21T06:32:55.068Z,116.37
2024-02-21T06:33:54.993Z,114.23
2024-02-21T06:34:54.986Z,111.76
2024-02-21T06:35:54.969Z,108.43
2024-02-21T06:36:54.998Z,109.00
2024-02-21T06:37:55.115Z,114.82
2024-02-21T06:38:55.029Z,129.38
2024-02-21T06:39:55.011Z,110.46
2024-02-21T06:40:55.034Z,118.53
2024-02-21T06:41:55.020Z,132.65
2024-02-21T06:42:55.039Z,153.47
2024-02-21T06:43:55.158Z,174.34
2024-02-21T06:44:55.056Z,178.73
2024-02-21T06:45:55.077Z,179.93
2024-02-21T06:46:55.145Z,185.09
2024-02-21T06:47:55.205Z,188.62
2024-02-21T06:48:55.223Z,183.37
2024-02-21T06:49:55.142Z,180.05
2024-02-21T06:50:55.147Z,169.81
2024-02-21T06:51:55.170Z,159.92
2024-02-21T06:52:55.226Z,154.30
2024-02-21T06:53:55.338Z,153.44
2024-02-21T06:54:55.372Z,150.79
2024-02-21T06:55:55.464Z,149.88
2024-02-21T06:56:55.481Z,150.70
2024-02-21T06:57:55.530Z,152.78
2024-02-21T06:58:55.678Z,150.08
2024-02-21T06:59:55.635Z,150.83
2024-02-21T07:00:55.701Z,145.04
2024-02-21T07:01:55.730Z,147.63
2024-02-21T07:02:55.752Z,144.75
2024-02-21T07:03:55.752Z,142.86
2024-02-21T07:04:55.944Z,144.41
2024-02-21T07:05:55.893Z,143.86
2024-02-21T07:06:55.944Z,145.60
2024-02-21T07:07:55.906Z,146.19
2024-02-21T07:08:55.887Z,145.62
2024-02-21T07:09:55.969Z,142.76
2024-02-21T07:10:56.075Z,140.05
2024-02-21T07:11:56.090Z,143.04
2024-02-21T07:12:56.119Z,140.55
2024-02-21T07:13:56.280Z,141.73
2024-02-21T07:14:56.275Z,145.63
2024-02-21T07:15:56.360Z,146.87
2024-02-21T07:16:56.501Z,150.61
2024-02-21T07:17:56.528Z,151.25
2024-02-21T07:18:56.581Z,156.20
2024-02-21T07:19:56.656Z,156.27
2024-02-21T07:20:56.690Z,160.08
2024-02-21T07:21:56.776Z,156.66
2024-02-21T07:22:56.910Z,159.41
2024-02-21T07:23:56.957Z,158.76
2024-02-21T07:24:56.988Z,161.35
2024-02-21T07:25:57.080Z,159.43
2024-02-21T07:26:57.108Z,157.40
2024-02-21T07:27:57.169Z,161.18
2024-02-21T07:28:57.293Z,157.43
2024-02-21T07:29:57.300Z,154.62
2024-02-21T07:30:57.319Z,156.52
2024-02-21T07:31:57.450Z,158.32
2024-02-21T07:32:57.501Z,158.02
2024-02-21T07:33:57.552Z,160.43
2024-02-21T07:34:57.686Z,164.91
2024-02-21T07:35:57.536Z,165.01
2024-02-21T07:36:57.556Z,165.85
2024-02-21T07:37:57.571Z,166.06
2024-02-21T07:38:57.566Z,171.32
2024-02-21T07:39:57.538Z,174.01
2024-02-21T07:40:57.602Z,174.97
2024-02-21T07:41:57.511Z,177.09
2024-02-21T07:42:57.510Z,178.94
2024-02-21T07:43:57.605Z,182.90
2024-02-21T07:44:57.571Z,184.81
2024-02-21T07:45:57.647Z,183.29
2024-02-21T07:46:57.864Z,182.49
2024-02-21T07:47:57.772Z,181.43
2024-02-21T07:48:57.814Z,181.49
2024-02-21T07:49:58.065Z,182.79
2024-02-21T07:50:57.844Z,181.43
2024-02-21T07:51:57.874Z,181.48
2024-02-21T07:52:57.901Z,181.96
2024-02-21T07:53:57.875Z,182.73
2024-02-21T07:54:57.837Z,184.06
2024-02-21T07:55:57.970Z,181.63
2024-02-21T07:56:57.838Z,182.18
2024-02-21T07:57:57.844Z,183.07
2024-02-21T07:58:57.958Z,184.25
2024-02-21T07:59:57.817Z,187.66
2024-02-21T08:00:57.861Z,185.56
2024-02-21T08:01:57.839Z,185.93
2024-02-21T08:02:57.838Z,188.64
2024-02-21T08:03:57.832Z,185.69
2024-02-21T08:04:57.864Z,187.66
2024-02-21T08:05:57.821Z,190.52
2024-02-21T08:06:57.793Z,189.31
2024-02-21T08:07:58.884Z,189.73
2024-02-21T08:08:57.792Z,189.80
2024-02-21T08:09:57.865Z,189.93
2024-02-21T08:10:57.833Z,189.61
2024-02-21T08:11:57.793Z,189.84
2024-02-21T08:12:57.759Z,191.02
2024-02-21T08:13:57.837Z,188.62
2024-02-21T08:14:57.766Z,190.30
2024-02-21T08:15:57.755Z,190.64
2024-02-21T08:16:57.895Z,191.16
2024-02-21T08:17:57.834Z,194.31
2024-02-21T08:18:57.827Z,192.64
2024-02-21T08:19:57.941Z,194.34
2024-02-21T08:20:57.760Z,195.95
2024-02-21T08:21:57.836Z,198.29
2024-02-21T08:22:57.802Z,199.03
2024-02-21T08:23:57.771Z,199.14
2024-02-21T08:24:57.784Z,199.38
2024-02-21T08:25:57.863Z,198.41
2024-02-21T08:26:57.770Z,198.11
2024-02-21T08:27:57.779Z,199.46
2024-02-21T08:28:57.894Z,196.87
2024-02-21T08:29:57.846Z,198.31
2024-02-21T08:30:57.856Z,196.56
2024-02-21T08:31:57.934Z,194.91
2024-02-21T08:32:58.003Z,193.97
2024-02-21T08:33:58.032Z,192.48
2024-02-21T08:34:58.096Z,192.88
2024-02-21T08:35:58.106Z,193.42
2024-02-21T08:36:58.189Z,197.98
2024-02-21T08:37:58.307Z,199.69
2024-02-21T08:38:58.306Z,200.20
2024-02-21T08:39:58.365Z,197.45
2024-02-21T08:40:58.520Z,197.66
2024-02-21T08:41:58.441Z,197.60
2024-02-21T08:42:58.418Z,194.79
2024-02-21T08:43:58.507Z,193.11
2024-02-21T08:44:58.462Z,191.41
2024-02-21T08:45:58.435Z,192.04
2024-02-21T08:46:58.506Z,193.27
2024-02-21T08:47:58.543Z,193.12
2024-02-21T08:48:58.469Z,192.04
2024-02-21T08:49:58.594Z,191.39
2024-02-21T08:50:58.455Z,187.68
2024-02-21T08:51:58.465Z,188.81
2024-02-21T08:52:58.645Z,185.90
2024-02-21T08:53:58.483Z,185.07
2024-02-21T08:54:58.542Z,183.50
2024-02-21T08:55:58.619Z,187.23
2024-02-21T08:56:58.591Z,184.95
2024-02-21T08:57:58.650Z,182.65
2024-02-21T08:58:58.667Z,183.54
2024-02-21T08:59:58.674Z,182.05
2024-02-21T09:00:58.754Z,180.30
2024-02-21T09:01:58.839Z,180.57
2024-02-21T09:02:58.757Z,181.19
2024-02-21T09:03:58.812Z,179.84
2024-02-21T09:04:58.918Z,179.15
2024-02-21T09:05:58.963Z,182.29
2024-02-21T09:06:58.899Z,182.52
2024-02-21T09:07:58.968Z,183.38
2024-02-21T09:08:58.886Z,183.54
2024-02-21T09:09:58.861Z,181.73
2024-02-21T09:10:58.951Z,186.14
2024-02-21T09:11:59.027Z,188.40
2024-02-21T09:12:58.867Z,188.88
2024-02-21T09:13:58.964Z,189.74
2024-02-21T09:14:58.856Z,192.04
2024-02-21T09:15:58.852Z,193.40
2024-02-21T09:16:58.970Z,195.11
2024-02-21T09:17:58.857Z,196.39
2024-02-21T09:18:58.952Z,198.82
2024-02-21T09:19:58.873Z,195.30
2024-02-21T09:20:58.902Z,197.46
2024-02-21T09:21:58.902Z,198.18
2024-02-21T09:22:58.962Z,195.49
2024-02-21T09:24:00.203Z,196.87
2024-02-21T09:24:59.083Z,198.43
2024-02-21T09:25:59.208Z,188.30
2024-02-21T09:26:59.178Z,197.95
2024-02-21T09:27:59.255Z,197.18
2024-02-21T09:28:59.367Z,198.04
2024-02-21T09:29:59.495Z,192.48
2024-02-21T09:30:59.405Z,184.26
2024-02-21T09:31:59.468Z,175.15
2024-02-21T09:32:59.458Z,170.71
2024-02-21T09:33:59.476Z,161.82
2024-02-21T09:35:02.256Z,146.05
2024-02-21T09:35:59.433Z,141.00
2024-02-21T09:36:59.429Z,126.30
2024-02-21T09:37:59.583Z,114.36
2024-02-21T09:38:59.392Z,98.81
2024-02-21T09:39:59.389Z,83.11
2024-02-21T09:40:59.477Z,69.77
2024-02-21T09:41:59.382Z,67.07
2024-02-21T09:42:59.377Z,51.72
2024-02-21T09:43:59.467Z,35.04
2024-02-21T09:44:59.366Z,22.63
2024-02-21T09:45:59.455Z,6.72
2024-02-21T09:46:59.451Z,18.54
2024-02-21T09:47:59.540Z,26.15
2024-02-21T09:48:59.417Z,33.06
2024-02-21T09:49:59.479Z,41.52
2024-02-21T09:50:59.400Z,48.36
2024-02-21T09:51:59.412Z,50.97
2024-02-21T09:52:59.502Z,50.89
2024-02-21T09:54:07.368Z,52.42
2024-02-21T09:55:00.429Z,52.47
2024-02-21T09:55:59.443Z,53.07
2024-02-21T09:56:59.429Z,54.83
2024-02-21T09:57:59.440Z,59.15
2024-02-21T09:58:59.543Z,66.94
2024-02-21T09:59:59.454Z,53.07
2024-02-21T10:00:59.482Z,55.47
2024-02-21T10:01:59.446Z,60.59
2024-02-21T10:02:59.495Z,69.81
2024-02-21T10:03:59.511Z,84.03
2024-02-21T10:04:59.420Z,88.19
2024-02-21T10:05:59.410Z,93.27
2024-02-21T10:06:59.417Z,96.13
2024-02-21T10:07:59.450Z,99.51
2024-02-21T10:08:59.394Z,102.90
2024-02-21T10:09:59.401Z,106.82
2024-02-21T10:10:59.390Z,110.29
2024-02-21T10:11:59.399Z,114.08
2024-02-21T10:12:59.344Z,118.22
2024-02-21T10:13:59.413Z,122.02
2024-02-21T10:14:59.362Z,125.27
2024-02-21T10:15:59.340Z,127.71
2024-02-21T10:16:59.505Z,131.05
2024-02-21T10:17:59.450Z,133.92
2024-02-21T10:18:59.378Z,136.84
2024-02-21T10:19:59.336Z,136.94
2024-02-21T10:20:59.286Z,137.18
2024-02-21T10:21:59.265Z,139.02
2024-02-21T10:22:59.293Z,141.89
2024-02-21T10:23:59.241Z,146.58
2024-02-21T10:24:59.252Z,149.38
2024-02-21T10:25:59.261Z,149.87
2024-02-21T10:26:59.199Z,150.11
2024-02-21T10:27:59.188Z,155.51
2024-02-21T10:28:59.187Z,155.67
2024-02-21T10:29:59.176Z,156.52
2024-02-21T10:30:59.150Z,159.46
2024-02-21T10:31:59.175Z,159.88
2024-02-21T10:33:23.763Z,50.00
2024-02-21T10:34:23.748Z,50.00
2024-02-21T10:35:23.695Z,50.00
2024-02-21T10:36:23.658Z,50.00
2024-02-21T10:37:23.715Z,50.00
2024-02-21T10:38:23.662Z,58.60
2024-02-21T10:39:23.688Z,53.29
2024-02-21T10:40:23.736Z,52.35
2024-02-21T10:41:23.742Z,60.35
2024-02-21T10:42:23.696Z,55.94
2024-02-21T10:43:23.757Z,54.85
2024-02-21T10:44:23.702Z,50.00
2024-02-21T10:45:23.721Z,56.01
2024-02-21T10:46:23.817Z,54.53
2024-02-21T10:47:23.738Z,53.02
2024-02-21T10:48:23.899Z,50.98
2024-02-21T10:49:23.838Z,57.75
2024-02-21T10:50:23.834Z,55.99
2024-02-21T10:51:23.786Z,58.11
2024-02-21T10:52:23.898Z,58.15
2024-02-21T10:53:23.895Z,58.80
2024-02-21T10:54:23.830Z,59.84
2024-02-21T10:55:23.906Z,61.23
2024-02-21T10:56:23.839Z,63.08
2024-02-21T10:57:23.869Z,64.05
2024-02-21T10:58:23.893Z,60.99
2024-02-21T10:59:23.879Z,62.13
2024-02-21T11:00:24.236Z,59.37
2024-02-21T11:01:24.150Z,54.79
2024-02-21T11:02:24.148Z,55.36
2024-02-21T11:03:24.276Z,54.89
2024-02-21T11:04:24.315Z,49.50
2024-02-21T11:05:24.485Z,46.18
2024-02-21T11:06:24.449Z,45.33
2024-02-21T11:07:24.496Z,44.06
2024-02-21T11:08:24.551Z,39.89
2024-02-21T11:09:24.642Z,45.50
2024-02-21T11:10:24.768Z,50.63
2024-02-21T11:11:32.046Z,50.00
2024-02-21T11:12:25.844Z,50.03
2024-02-21T11:13:24.832Z,49.26
2024-02-21T11:14:24.826Z,50.27
2024-02-21T11:15:24.858Z,47.68
2024-02-21T11:16:24.887Z,48.45
2024-02-21T11:17:24.910Z,52.36
2024-02-21T11:18:25.025Z,51.48
2024-02-21T11:19:25.815Z,50.61
2024-02-21T11:20:25.249Z,51.17
2024-02-21T11:21:25.063Z,50.85
2024-02-21T11:22:25.187Z,51.24
2024-02-21T11:23:25.246Z,54.71
2024-02-21T11:24:25.315Z,52.37
2024-02-21T11:25:25.404Z,56.05
2024-02-21T11:26:25.460Z,58.19
2024-02-21T11:27:25.545Z,59.06
2024-02-21T11:28:25.625Z,59.42
2024-02-21T11:29:25.680Z,61.21
2024-02-21T11:30:25.772Z,59.68
2024-02-21T11:31:25.866Z,60.16
2024-02-21T11:32:25.903Z,61.62
2024-02-21T11:33:26.101Z,59.62
2024-02-21T11:34:26.135Z,63.92
2024-02-21T11:35:26.134Z,64.37
2024-02-21T11:36:26.171Z,65.49
2024-02-21T11:37:26.346Z,66.64
2024-02-21T11:38:26.319Z,67.32
2024-02-21T11:39:26.415Z,66.34
2024-02-21T11:40:26.514Z,69.34
2024-02-21T11:41:26.541Z,66.54
2024-02-21T11:42:26.591Z,64.74
2024-02-21T11:43:26.710Z,62.07
2024-02-21T11:44:26.741Z,59.92
2024-02-21T11:45:26.817Z,55.51
2024-02-21T11:46:26.996Z,53.00
2024-02-21T11:47:27.050Z,54.51
2024-02-21T11:48:27.083Z,52.55
2024-02-21T11:49:27.212Z,52.07
2024-02-21T11:50:27.261Z,52.49
2024-02-21T11:51:27.216Z,53.90
2024-02-21T11:52:27.906Z,52.38
2024-02-21T11:53:27.366Z,48.00
2024-02-21T11:54:27.432Z,50.56
2024-02-21T11:55:27.565Z,56.75
2024-02-21T11:56:27.595Z,52.86
2024-02-21T11:57:27.662Z,50.97
2024-02-21T11:58:27.798Z,53.49
2024-02-21T11:59:27.778Z,50.52
2024-02-21T12:00:27.848Z,56.00
2024-02-21T12:01:27.941Z,57.89
2024-02-21T12:02:28.129Z,53.20
2024-02-21T12:03:28.066Z,54.66
2024-02-21T12:04:28.172Z,51.50
2024-02-21T12:05:28.471Z,50.00
2024-02-21T12:06:28.333Z,51.88
2024-02-21T12:07:28.436Z,53.86
2024-02-21T12:08:28.410Z,55.00
2024-02-21T12:09:28.420Z,54.88
2024-02-21T12:10:28.504Z,54.85
2024-02-21T12:11:28.436Z,54.86
2024-02-21T12:12:28.403Z,53.16
2024-02-21T12:13:28.449Z,53.23
2024-02-21T12:14:28.416Z,54.96
2024-02-21T12:15:28.507Z,53.49
2024-02-21T12:16:28.529Z,56.12
2024-02-21T12:17:28.579Z,57.96
2024-02-21T12:18:28.566Z,57.45
2024-02-21T12:19:28.626Z,55.87
2024-02-21T12:20:28.529Z,56.03
2024-02-21T12:21:28.547Z,56.75
2024-02-21T12:22:28.618Z,58.54
2024-02-21T12:23:28.567Z,59.95
2024-02-21T12:24:28.648Z,65.62
2024-02-21T12:25:28.649Z,60.38
2024-02-21T12:26:28.609Z,64.49
2024-02-21T12:27:28.604Z,66.92
2024-02-21T12:28:28.652Z,67.34
2024-02-21T12:29:28.737Z,67.59
2024-02-21T12:30:28.686Z,67.69
2024-02-21T12:31:28.743Z,67.87
2024-02-21T12:32:28.749Z,68.04
2024-02-21T12:33:28.754Z,68.48
2024-02-21T12:34:35.559Z,69.44
2024-02-21T12:35:29.842Z,67.86
2024-02-21T12:36:28.759Z,69.01
2024-02-21T12:37:28.849Z,70.41
2024-02-21T12:38:28.845Z,70.90
2024-02-21T12:39:28.786Z,68.04